sensor_id;sensor_type;location;lat;lon;timestamp;temperature;humidity
4584;DHT22;2304;47.606;12.186;2023-03-01T00:02:02;3.50;62.00
4584;DHT22;2304;47.606;12.186;2023-03-01T00:07:04;3.50;62.00
4584;DHT22;2304;47.606;12.186;2023-03-01T00:12:06;3.50;62.00
4584;DHT22;2304;47.606;12.186;2023-03-01T00:17:09;3.60;61.80
4584;DHT22;2304;47.606;12.186;2023-03-01T00:22:11;3.50;61.90
4584;DHT22;2304;47.606;12.186;2023-03-01T00:27:13;3.50;62.50
4584;DHT22;2304;47.606;12.186;2023-03-01T00:32:16;3.50;62.50
4584;DHT22;2304;47.606;12.186;2023-03-01T00:37:18;3.50;62.30
4584;DHT22;2304;47.606;12.186;2023-03-01T00:42:20;3.40;62.40
4584;DHT22;2304;47.606;12.186;2023-03-01T00:47:23;3.40;62.60
4584;DHT22;2304;47.606;12.186;2023-03-01T00:52:25;3.60;62.20
4584;DHT22;2304;47.606;12.186;2023-03-01T00:57:28;3.50;62.30
4584;DHT22;2304;47.606;12.186;2023-03-01T01:02:34;3.40;62.40
4584;DHT22;2304;47.606;12.186;2023-03-01T01:07:36;3.50;62.60
4584;DHT22;2304;47.606;12.186;2023-03-01T01:12:38;3.50;62.10
4584;DHT22;2304;47.606;12.186;2023-03-01T01:17:41;3.50;62.30
4584;DHT22;2304;47.606;12.186;2023-03-01T01:22:43;3.40;63.10
4584;DHT22;2304;47.606;12.186;2023-03-01T01:27:45;3.60;63.50
4584;DHT22;2304;47.606;12.186;2023-03-01T01:32:48;3.40;63.20
4584;DHT22;2304;47.606;12.186;2023-03-01T01:37:50;3.40;62.90
4584;DHT22;2304;47.606;12.186;2023-03-01T01:42:52;3.30;63.60
4584;DHT22;2304;47.606;12.186;2023-03-01T01:47:57;3.30;63.70
4584;DHT22;2304;47.606;12.186;2023-03-01T01:53:00;3.30;63.50
4584;DHT22;2304;47.606;12.186;2023-03-01T01:58:04;3.30;63.60
4584;DHT22;2304;47.606;12.186;2023-03-01T02:03:11;3.30;63.70
4584;DHT22;2304;47.606;12.186;2023-03-01T02:08:15;3.40;63.70
4584;DHT22;2304;47.606;12.186;2023-03-01T02:13:18;3.40;63.40
4584;DHT22;2304;47.606;12.186;2023-03-01T02:18:23;3.30;63.70
4584;DHT22;2304;47.606;12.186;2023-03-01T02:23:25;3.40;63.90
4584;DHT22;2304;47.606;12.186;2023-03-01T02:28:31;3.40;64.10
4584;DHT22;2304;47.606;12.186;2023-03-01T02:33:34;3.40;63.50
4584;DHT22;2304;47.606;12.186;2023-03-01T02:38:37;3.30;64.30
4584;DHT22;2304;47.606;12.186;2023-03-01T02:43:41;3.30;64.20
4584;DHT22;2304;47.606;12.186;2023-03-01T02:48:45;3.40;64.10
4584;DHT22;2304;47.606;12.186;2023-03-01T02:53:56;3.20;64.80
4584;DHT22;2304;47.606;12.186;2023-03-01T02:59:02;3.10;65.40
4584;DHT22;2304;47.606;12.186;2023-03-01T03:04:05;3.20;64.60
4584;DHT22;2304;47.606;12.186;2023-03-01T03:09:08;3.30;64.60
4584;DHT22;2304;47.606;12.186;2023-03-01T03:14:13;3.20;64.30
4584;DHT22;2304;47.606;12.186;2023-03-01T03:19:15;3.20;65.10
4584;DHT22;2304;47.606;12.186;2023-03-01T03:24:17;3.20;65.00
4584;DHT22;2304;47.606;12.186;2023-03-01T03:29:20;3.20;64.60
4584;DHT22;2304;47.606;12.186;2023-03-01T03:34:22;3.30;64.30
4584;DHT22;2304;47.606;12.186;2023-03-01T03:39:24;3.30;64.20
4584;DHT22;2304;47.606;12.186;2023-03-01T03:44:27;3.40;64.30
4584;DHT22;2304;47.606;12.186;2023-03-01T03:49:28;3.40;64.10
4584;DHT22;2304;47.606;12.186;2023-03-01T03:54:30;3.50;64.10
4584;DHT22;2304;47.606;12.186;2023-03-01T03:59:33;3.50;63.90
4584;DHT22;2304;47.606;12.186;2023-03-01T04:04:35;3.40;64.20
4584;DHT22;2304;47.606;12.186;2023-03-01T04:09:37;3.50;64.20
4584;DHT22;2304;47.606;12.186;2023-03-01T04:14:40;3.50;63.80
4584;DHT22;2304;47.606;12.186;2023-03-01T04:19:42;3.40;63.90
4584;DHT22;2304;47.606;12.186;2023-03-01T04:24:44;3.40;64.40
4584;DHT22;2304;47.606;12.186;2023-03-01T04:29:47;3.40;64.70
4584;DHT22;2304;47.606;12.186;2023-03-01T04:34:49;3.40;64.60
4584;DHT22;2304;47.606;12.186;2023-03-01T04:39:51;3.40;64.30
4584;DHT22;2304;47.606;12.186;2023-03-01T04:44:54;3.40;64.10
4584;DHT22;2304;47.606;12.186;2023-03-01T04:49:56;3.50;64.00
4584;DHT22;2304;47.606;12.186;2023-03-01T04:54:58;3.40;64.20
4584;DHT22;2304;47.606;12.186;2023-03-01T05:00:02;3.40;64.20
4584;DHT22;2304;47.606;12.186;2023-03-01T05:05:21;3.50;64.00
4584;DHT22;2304;47.606;12.186;2023-03-01T05:10:26;3.50;64.10
4584;DHT22;2304;47.606;12.186;2023-03-01T05:15:31;3.40;64.40
4584;DHT22;2304;47.606;12.186;2023-03-01T05:20:33;3.30;64.70
4584;DHT22;2304;47.606;12.186;2023-03-01T05:25:36;3.30;64.70
4584;DHT22;2304;47.606;12.186;2023-03-01T05:30:41;3.30;64.70
4584;DHT22;2304;47.606;12.186;2023-03-01T05:35:44;3.40;64.60
4584;DHT22;2304;47.606;12.186;2023-03-01T05:40:49;3.40;64.50
4584;DHT22;2304;47.606;12.186;2023-03-01T05:45:52;3.40;64.40
4584;DHT22;2304;47.606;12.186;2023-03-01T05:50:53;3.40;64.30
4584;DHT22;2304;47.606;12.186;2023-03-01T05:55:55;3.40;64.90
4584;DHT22;2304;47.606;12.186;2023-03-01T06:00:58;3.40;64.80
4584;DHT22;2304;47.606;12.186;2023-03-01T06:06:00;3.40;64.50
4584;DHT22;2304;47.606;12.186;2023-03-01T06:11:02;3.40;64.40
4584;DHT22;2304;47.606;12.186;2023-03-01T06:16:07;3.50;64.50
4584;DHT22;2304;47.606;12.186;2023-03-01T06:21:09;3.40;64.90
4584;DHT22;2304;47.606;12.186;2023-03-01T06:26:10;3.50;64.80
4584;DHT22;2304;47.606;12.186;2023-03-01T06:31:14;3.50;64.80
4584;DHT22;2304;47.606;12.186;2023-03-01T06:36:15;3.40;64.50
4584;DHT22;2304;47.606;12.186;2023-03-01T06:41:19;3.40;64.80
4584;DHT22;2304;47.606;12.186;2023-03-01T06:46:22;3.40;64.90
4584;DHT22;2304;47.606;12.186;2023-03-01T06:51:24;3.50;65.10
4584;DHT22;2304;47.606;12.186;2023-03-01T06:56:25;3.50;64.70
4584;DHT22;2304;47.606;12.186;2023-03-01T07:01:29;3.50;64.50
4584;DHT22;2304;47.606;12.186;2023-03-01T07:06:31;3.50;64.40
4584;DHT22;2304;47.606;12.186;2023-03-01T07:11:33;3.60;64.20
4584;DHT22;2304;47.606;12.186;2023-03-01T07:16:36;3.70;64.40
4584;DHT22;2304;47.606;12.186;2023-03-01T07:21:37;3.70;64.40
4584;DHT22;2304;47.606;12.186;2023-03-01T07:26:40;3.70;64.60
4584;DHT22;2304;47.606;12.186;2023-03-01T07:31:43;3.70;64.40
4584;DHT22;2304;47.606;12.186;2023-03-01T07:36:45;3.60;64.20
4584;DHT22;2304;47.606;12.186;2023-03-01T07:41:47;3.60;64.30
4584;DHT22;2304;47.606;12.186;2023-03-01T07:46:50;3.60;64.40
4584;DHT22;2304;47.606;12.186;2023-03-01T07:51:56;3.60;64.30
4584;DHT22;2304;47.606;12.186;2023-03-01T07:56:58;3.60;65.00
4584;DHT22;2304;47.606;12.186;2023-03-01T08:02:02;3.60;64.90
4584;DHT22;2304;47.606;12.186;2023-03-01T08:07:04;3.70;65.60
4584;DHT22;2304;47.606;12.186;2023-03-01T08:12:06;3.60;64.60
4584;DHT22;2304;47.606;12.186;2023-03-01T08:17:10;3.70;64.80
4584;DHT22;2304;47.606;12.186;2023-03-01T08:22:12;3.70;64.80
4584;DHT22;2304;47.606;12.186;2023-03-01T08:27:15;3.70;64.50
4584;DHT22;2304;47.606;12.186;2023-03-01T08:32:18;3.70;64.30
4584;DHT22;2304;47.606;12.186;2023-03-01T08:37:20;3.80;63.90
4584;DHT22;2304;47.606;12.186;2023-03-01T08:42:21;3.80;63.60
4584;DHT22;2304;47.606;12.186;2023-03-01T08:47:25;3.80;63.50
4584;DHT22;2304;47.606;12.186;2023-03-01T08:52:26;3.80;63.50
4584;DHT22;2304;47.606;12.186;2023-03-01T08:57:29;3.90;63.40
4584;DHT22;2304;47.606;12.186;2023-03-01T09:02:32;3.90;63.00
4584;DHT22;2304;47.606;12.186;2023-03-01T09:07:34;4.00;63.10
4584;DHT22;2304;47.606;12.186;2023-03-01T09:12:36;4.10;63.00
4584;DHT22;2304;47.606;12.186;2023-03-01T09:17:39;4.10;62.80
4584;DHT22;2304;47.606;12.186;2023-03-01T09:22:41;4.20;61.70
4584;DHT22;2304;47.606;12.186;2023-03-01T09:27:44;4.20;62.30
4584;DHT22;2304;47.606;12.186;2023-03-01T09:32:47;4.20;61.80
4584;DHT22;2304;47.606;12.186;2023-03-01T09:37:49;4.30;61.70
4584;DHT22;2304;47.606;12.186;2023-03-01T09:42:56;4.30;62.20
4584;DHT22;2304;47.606;12.186;2023-03-01T09:48:02;4.30;62.30
4584;DHT22;2304;47.606;12.186;2023-03-01T09:53:07;4.30;62.00
4584;DHT22;2304;47.606;12.186;2023-03-01T09:58:31;4.40;61.60
4584;DHT22;2304;47.606;12.186;2023-03-01T10:03:41;4.50;61.40
4584;DHT22;2304;47.606;12.186;2023-03-01T10:08:50;4.60;61.40
4584;DHT22;2304;47.606;12.186;2023-03-01T10:13:58;4.80;60.50
4584;DHT22;2304;47.606;12.186;2023-03-01T10:19:03;5.00;59.80
4584;DHT22;2304;47.606;12.186;2023-03-01T10:24:10;5.00;59.50
4584;DHT22;2304;47.606;12.186;2023-03-01T10:29:14;4.90;61.40
4584;DHT22;2304;47.606;12.186;2023-03-01T10:34:19;5.00;62.00
4584;DHT22;2304;47.606;12.186;2023-03-01T10:39:22;5.00;61.50
4584;DHT22;2304;47.606;12.186;2023-03-01T10:44:43;5.20;60.90
4584;DHT22;2304;47.606;12.186;2023-03-01T10:50:19;5.30;59.60
4584;DHT22;2304;47.606;12.186;2023-03-01T10:55:26;5.40;59.50
4584;DHT22;2304;47.606;12.186;2023-03-01T11:00:29;5.40;57.90
4584;DHT22;2304;47.606;12.186;2023-03-01T11:05:32;5.90;59.10
4584;DHT22;2304;47.606;12.186;2023-03-01T11:10:36;6.20;58.80
4584;DHT22;2304;47.606;12.186;2023-03-01T11:15:37;6.70;58.60
4584;DHT22;2304;47.606;12.186;2023-03-01T11:20:41;7.40;57.30
4584;DHT22;2304;47.606;12.186;2023-03-01T11:25:46;8.10;56.50
4584;DHT22;2304;47.606;12.186;2023-03-01T11:30:53;7.70;54.70
4584;DHT22;2304;47.606;12.186;2023-03-01T11:36:01;8.10;55.30
4584;DHT22;2304;47.606;12.186;2023-03-01T11:41:07;8.60;53.20
4584;DHT22;2304;47.606;12.186;2023-03-01T11:51:51;9.10;51.30
4584;DHT22;2304;47.606;12.186;2023-03-01T11:57:00;9.20;51.10
4584;DHT22;2304;47.606;12.186;2023-03-01T12:02:27;9.20;51.00
4584;DHT22;2304;47.606;12.186;2023-03-01T12:07:41;9.10;50.90
4584;DHT22;2304;47.606;12.186;2023-03-01T12:13:02;9.60;51.20
4584;DHT22;2304;47.606;12.186;2023-03-01T12:18:19;9.40;49.60
4584;DHT22;2304;47.606;12.186;2023-03-01T12:23:46;9.30;50.80
4584;DHT22;2304;47.606;12.186;2023-03-01T12:29:08;9.50;49.70
4584;DHT22;2304;47.606;12.186;2023-03-01T12:34:24;9.50;50.00
4584;DHT22;2304;47.606;12.186;2023-03-01T12:39:42;9.60;49.90
4584;DHT22;2304;47.606;12.186;2023-03-01T12:45:07;10.10;49.60
4584;DHT22;2304;47.606;12.186;2023-03-01T12:50:19;10.30;48.90
4584;DHT22;2304;47.606;12.186;2023-03-01T12:55:29;10.50;48.60
4584;DHT22;2304;47.606;12.186;2023-03-01T13:00:36;10.30;48.50
4584;DHT22;2304;47.606;12.186;2023-03-01T13:05:45;10.30;48.30
4584;DHT22;2304;47.606;12.186;2023-03-01T13:10:53;10.30;47.80
4584;DHT22;2304;47.606;12.186;2023-03-01T13:21:37;10.20;46.30
4584;DHT22;2304;47.606;12.186;2023-03-01T13:32:19;10.10;47.60
4584;DHT22;2304;47.606;12.186;2023-03-01T13:37:24;9.70;49.30
4584;DHT22;2304;47.606;12.186;2023-03-01T13:42:38;9.50;49.70
4584;DHT22;2304;47.606;12.186;2023-03-01T13:47:42;9.60;49.10
4584;DHT22;2304;47.606;12.186;2023-03-01T13:52:50;9.70;49.10
4584;DHT22;2304;47.606;12.186;2023-03-01T13:57:56;9.70;49.70
4584;DHT22;2304;47.606;12.186;2023-03-01T14:03:11;9.80;49.40
4584;DHT22;2304;47.606;12.186;2023-03-01T14:08:24;9.50;49.80
4584;DHT22;2304;47.606;12.186;2023-03-01T14:13:34;9.40;49.90
4584;DHT22;2304;47.606;12.186;2023-03-01T14:18:43;9.30;50.10
4584;DHT22;2304;47.606;12.186;2023-03-01T14:23:48;9.00;50.40
4584;DHT22;2304;47.606;12.186;2023-03-01T14:28:51;8.80;50.60
4584;DHT22;2304;47.606;12.186;2023-03-01T14:33:55;8.80;51.70
4584;DHT22;2304;47.606;12.186;2023-03-01T14:38:57;8.70;51.60
4584;DHT22;2304;47.606;12.186;2023-03-01T14:44:07;8.60;51.10
4584;DHT22;2304;47.606;12.186;2023-03-01T14:49:13;8.60;51.80
4584;DHT22;2304;47.606;12.186;2023-03-01T14:54:21;8.40;52.10
4584;DHT22;2304;47.606;12.186;2023-03-01T14:59:23;8.30;51.90
4584;DHT22;2304;47.606;12.186;2023-03-01T15:04:27;8.30;52.30
4584;DHT22;2304;47.606;12.186;2023-03-01T15:09:31;8.10;52.60
4584;DHT22;2304;47.606;12.186;2023-03-01T15:14:41;7.90;52.70
4584;DHT22;2304;47.606;12.186;2023-03-01T15:19:47;7.80;53.10
4584;DHT22;2304;47.606;12.186;2023-03-01T15:24:50;7.60;53.60
4584;DHT22;2304;47.606;12.186;2023-03-01T15:29:54;7.30;54.80
4584;DHT22;2304;47.606;12.186;2023-03-01T15:34:58;7.20;54.70
4584;DHT22;2304;47.606;12.186;2023-03-01T15:40:00;7.30;54.60
4584;DHT22;2304;47.606;12.186;2023-03-01T15:45:08;7.10;54.90
4584;DHT22;2304;47.606;12.186;2023-03-01T15:50:17;7.10;55.00
4584;DHT22;2304;47.606;12.186;2023-03-01T15:55:22;7.00;55.00
4584;DHT22;2304;47.606;12.186;2023-03-01T16:00:24;6.80;55.50
4584;DHT22;2304;47.606;12.186;2023-03-01T16:05:29;6.80;55.60
4584;DHT22;2304;47.606;12.186;2023-03-01T16:10:32;6.60;55.90
4584;DHT22;2304;47.606;12.186;2023-03-01T16:15:34;6.50;56.40
4584;DHT22;2304;47.606;12.186;2023-03-01T16:20:37;6.50;56.40
4584;DHT22;2304;47.606;12.186;2023-03-01T16:25:39;6.30;56.50
4584;DHT22;2304;47.606;12.186;2023-03-01T16:30:45;6.20;56.90
4584;DHT22;2304;47.606;12.186;2023-03-01T16:35:48;6.20;57.80
4584;DHT22;2304;47.606;12.186;2023-03-01T16:40:51;6.10;57.00
4584;DHT22;2304;47.606;12.186;2023-03-01T16:45:53;6.00;56.90
4584;DHT22;2304;47.606;12.186;2023-03-01T16:50:58;6.00;57.30
4584;DHT22;2304;47.606;12.186;2023-03-01T16:56:01;5.90;57.50
4584;DHT22;2304;47.606;12.186;2023-03-01T17:01:05;5.90;57.50
4584;DHT22;2304;47.606;12.186;2023-03-01T17:06:10;5.80;57.50
4584;DHT22;2304;47.606;12.186;2023-03-01T17:11:14;5.80;58.00
4584;DHT22;2304;47.606;12.186;2023-03-01T17:16:18;5.70;58.30
4584;DHT22;2304;47.606;12.186;2023-03-01T17:21:21;5.60;58.00
4584;DHT22;2304;47.606;12.186;2023-03-01T17:26:23;5.60;58.10
4584;DHT22;2304;47.606;12.186;2023-03-01T17:31:25;5.60;58.00
4584;DHT22;2304;47.606;12.186;2023-03-01T17:36:28;5.50;58.10
4584;DHT22;2304;47.606;12.186;2023-03-01T17:41:30;5.40;58.30
4584;DHT22;2304;47.606;12.186;2023-03-01T17:46:32;5.40;58.30
4584;DHT22;2304;47.606;12.186;2023-03-01T17:51:35;5.40;58.30
4584;DHT22;2304;47.606;12.186;2023-03-01T17:56:37;5.30;58.60
4584;DHT22;2304;47.606;12.186;2023-03-01T18:01:41;5.30;58.70
4584;DHT22;2304;47.606;12.186;2023-03-01T18:06:44;5.30;59.10
4584;DHT22;2304;47.606;12.186;2023-03-01T18:11:46;5.20;59.90
4584;DHT22;2304;47.606;12.186;2023-03-01T18:16:48;5.10;59.70
4584;DHT22;2304;47.606;12.186;2023-03-01T18:21:51;5.00;59.80
4584;DHT22;2304;47.606;12.186;2023-03-01T18:26:52;5.00;59.90
4584;DHT22;2304;47.606;12.186;2023-03-01T18:31:54;4.90;60.00
4584;DHT22;2304;47.606;12.186;2023-03-01T18:36:57;4.90;60.20
4584;DHT22;2304;47.606;12.186;2023-03-01T18:41:59;4.80;59.80
4584;DHT22;2304;47.606;12.186;2023-03-01T18:47:01;4.70;61.50
4584;DHT22;2304;47.606;12.186;2023-03-01T18:52:04;4.60;61.00
4584;DHT22;2304;47.606;12.186;2023-03-01T18:57:06;4.60;61.30
4584;DHT22;2304;47.606;12.186;2023-03-01T19:02:10;4.60;61.00
4584;DHT22;2304;47.606;12.186;2023-03-01T19:07:13;4.60;60.80
4584;DHT22;2304;47.606;12.186;2023-03-01T19:12:15;4.60;61.00
4584;DHT22;2304;47.606;12.186;2023-03-01T19:17:16;4.60;61.40
4584;DHT22;2304;47.606;12.186;2023-03-01T19:22:20;4.50;61.20
4584;DHT22;2304;47.606;12.186;2023-03-01T19:27:22;4.40;61.60
4584;DHT22;2304;47.606;12.186;2023-03-01T19:32:24;4.40;62.10
4584;DHT22;2304;47.606;12.186;2023-03-01T19:37:27;4.40;62.00
4584;DHT22;2304;47.606;12.186;2023-03-01T19:42:29;4.30;62.80
4584;DHT22;2304;47.606;12.186;2023-03-01T19:47:31;4.30;62.20
4584;DHT22;2304;47.606;12.186;2023-03-01T19:52:34;4.20;62.00
4584;DHT22;2304;47.606;12.186;2023-03-01T19:57:36;4.10;62.40
4584;DHT22;2304;47.606;12.186;2023-03-01T20:02:38;4.10;63.00
4584;DHT22;2304;47.606;12.186;2023-03-01T20:07:41;4.00;62.80
4584;DHT22;2304;47.606;12.186;2023-03-01T20:12:43;3.90;62.90
4584;DHT22;2304;47.606;12.186;2023-03-01T20:17:44;3.90;63.10
4584;DHT22;2304;47.606;12.186;2023-03-01T20:22:48;3.80;63.20
4584;DHT22;2304;47.606;12.186;2023-03-01T20:27:49;3.70;64.10
4584;DHT22;2304;47.606;12.186;2023-03-01T20:32:51;3.80;66.30
4584;DHT22;2304;47.606;12.186;2023-03-01T20:37:55;3.90;64.20
4584;DHT22;2304;47.606;12.186;2023-03-01T20:42:57;3.70;64.10
4584;DHT22;2304;47.606;12.186;2023-03-01T20:47:58;3.70;63.90
4584;DHT22;2304;47.606;12.186;2023-03-01T20:53:02;3.80;63.70
4584;DHT22;2304;47.606;12.186;2023-03-01T20:58:03;3.70;64.00
4584;DHT22;2304;47.606;12.186;2023-03-01T21:03:05;3.70;64.20
4584;DHT22;2304;47.606;12.186;2023-03-01T21:08:08;3.70;64.60
4584;DHT22;2304;47.606;12.186;2023-03-01T21:13:10;3.60;64.60
4584;DHT22;2304;47.606;12.186;2023-03-01T21:18:12;3.60;64.40
4584;DHT22;2304;47.606;12.186;2023-03-01T21:23:15;3.60;64.60
4584;DHT22;2304;47.606;12.186;2023-03-01T21:28:18;3.60;64.60
4584;DHT22;2304;47.606;12.186;2023-03-01T21:33:20;3.60;64.70
4584;DHT22;2304;47.606;12.186;2023-03-01T21:38:23;3.50;65.10
4584;DHT22;2304;47.606;12.186;2023-03-01T21:43:25;3.50;64.90
4584;DHT22;2304;47.606;12.186;2023-03-01T21:48:27;3.40;65.70
4584;DHT22;2304;47.606;12.186;2023-03-01T21:53:32;3.30;65.50
4584;DHT22;2304;47.606;12.186;2023-03-01T21:58:34;3.40;65.10
4584;DHT22;2304;47.606;12.186;2023-03-01T22:03:36;3.40;64.90
4584;DHT22;2304;47.606;12.186;2023-03-01T22:08:47;3.30;65.50
4584;DHT22;2304;47.606;12.186;2023-03-01T22:13:50;3.30;65.10
4584;DHT22;2304;47.606;12.186;2023-03-01T22:18:52;3.30;64.90
4584;DHT22;2304;47.606;12.186;2023-03-01T22:23:55;3.20;65.90
4584;DHT22;2304;47.606;12.186;2023-03-01T22:28:59;3.10;66.40
4584;DHT22;2304;47.606;12.186;2023-03-01T22:34:02;3.10;66.70
4584;DHT22;2304;47.606;12.186;2023-03-01T22:39:05;3.10;67.20
4584;DHT22;2304;47.606;12.186;2023-03-01T22:44:08;3.10;67.00
4584;DHT22;2304;47.606;12.186;2023-03-01T22:49:09;3.10;67.60
4584;DHT22;2304;47.606;12.186;2023-03-01T22:54:13;3.00;68.10
4584;DHT22;2304;47.606;12.186;2023-03-01T22:59:17;3.00;68.60
4584;DHT22;2304;47.606;12.186;2023-03-01T23:04:20;3.00;67.50
4584;DHT22;2304;47.606;12.186;2023-03-01T23:09:25;3.00;67.10
4584;DHT22;2304;47.606;12.186;2023-03-01T23:14:30;3.00;67.40
4584;DHT22;2304;47.606;12.186;2023-03-01T23:19:31;2.90;68.10
4584;DHT22;2304;47.606;12.186;2023-03-01T23:24:35;2.90;67.40
4584;DHT22;2304;47.606;12.186;2023-03-01T23:29:36;2.90;67.30
4584;DHT22;2304;47.606;12.186;2023-03-01T23:34:38;2.90;67.10
4584;DHT22;2304;47.606;12.186;2023-03-01T23:39:44;2.90;67.30
4584;DHT22;2304;47.606;12.186;2023-03-01T23:44:46;2.90;67.40
4584;DHT22;2304;47.606;12.186;2023-03-01T23:49:48;2.90;67.20
4584;DHT22;2304;47.606;12.186;2023-03-01T23:54:52;2.80;67.50
4584;DHT22;2304;47.606;12.186;2023-03-01T23:59:53;2.80;68.80
